createdAt,value
2022-10-23T00:00:20.403Z,99525.66
2022-10-23T00:02:54.598Z,99540.81
2022-10-23T00:05:22.509Z,99538.94
2022-10-23T00:07:50.929Z,99542.31
2022-10-23T00:10:18.551Z,99545.22
2022-10-23T00:12:46.033Z,99540.16
2022-10-23T00:15:14.100Z,99543.84
2022-10-23T00:17:41.681Z,99557.22
2022-10-23T00:20:09.659Z,99547.56
2022-10-23T00:22:37.189Z,99557.41
2022-10-23T00:25:07.735Z,99560.69
2022-10-23T00:27:34.952Z,99560.63
2022-10-23T00:30:03.428Z,99561.31
2022-10-23T00:35:03.173Z,99558.34
2022-10-23T00:37:31.463Z,99560.94
2022-10-23T00:39:58.702Z,99567.69
2022-10-23T00:42:26.213Z,99571.22
2022-10-23T00:44:53.344Z,99585.81
2022-10-23T00:47:20.589Z,99583.25
2022-10-23T00:49:48.097Z,99586.72
2022-10-23T00:52:15.282Z,99592.19
2022-10-23T00:54:42.955Z,99594.41
2022-10-23T00:57:14.200Z,99603.41
2022-10-23T00:59:41.748Z,99611.72
2022-10-23T01:02:09.071Z,99617.28
2022-10-23T01:04:36.698Z,99622.81
2022-10-23T01:07:15.471Z,99627.41
2022-10-23T01:09:58.931Z,99635.13
2022-10-23T01:12:33.227Z,99629.16
2022-10-23T01:15:12.643Z,99631.03
2022-10-23T01:17:44.857Z,99631.47
2022-10-23T01:20:33.069Z,99622.97
2022-10-23T01:23:18.897Z,99615.09
2022-10-23T01:25:56.425Z,99625.47
2022-10-23T01:28:29.188Z,99632.81
2022-10-23T01:30:57.630Z,99623.16
2022-10-23T01:33:31.639Z,99630.00
2022-10-23T01:36:03.651Z,99633.56
2022-10-23T01:38:45.008Z,99617.38
2022-10-23T01:41:14.474Z,99614.16
2022-10-23T01:43:41.730Z,99626.59
2022-10-23T01:46:09.385Z,99624.56
2022-10-23T01:48:37.545Z,99619.75
2022-10-23T01:51:05.896Z,99617.09
2022-10-23T01:53:34.477Z,99621.75
2022-10-23T01:56:03.066Z,99617.12
2022-10-23T01:58:30.277Z,99619.78
2022-10-23T02:00:58.515Z,99615.62
2022-10-23T02:03:26.596Z,99620.03
2022-10-23T02:05:53.834Z,99622.50
2022-10-23T02:08:21.291Z,99609.59
2022-10-23T02:11:04.346Z,99610.34
2022-10-23T02:13:38.632Z,99617.25
2022-10-23T02:16:10.382Z,99616.00
2022-10-23T02:18:44.616Z,99617.25
2022-10-23T02:21:12.914Z,99618.59
2022-10-23T02:23:43.053Z,99620.37
2022-10-23T02:26:16.043Z,99606.50
2022-10-23T02:28:56.214Z,99608.81
2022-10-23T02:31:23.490Z,99610.41
2022-10-23T02:33:51.016Z,99613.75
2022-10-23T02:36:18.690Z,99612.34
2022-10-23T02:38:46.159Z,99620.87
2022-10-23T02:41:17.599Z,99617.69
2022-10-23T02:43:58.021Z,99623.75
2022-10-23T02:46:28.809Z,99627.97
2022-10-23T02:49:00.278Z,99633.38
2022-10-23T02:51:32.829Z,99646.12
2022-10-23T02:54:00.529Z,99633.09
2022-10-23T02:56:38.619Z,99642.06
2022-10-23T02:59:08.007Z,99641.00
2022-10-23T03:01:37.884Z,99642.69
2022-10-23T03:04:05.138Z,99644.13
2022-10-23T03:06:32.445Z,99648.78
2022-10-23T03:09:04.811Z,99648.84
2022-10-23T03:11:32.006Z,99652.94
2022-10-23T03:13:59.751Z,99652.19
2022-10-23T03:16:27.001Z,99649.72
2022-10-23T03:18:54.653Z,99658.87
2022-10-23T03:21:22.470Z,99655.72
2022-10-23T03:23:51.283Z,99660.38
2022-10-23T03:26:19.615Z,99661.72
2022-10-23T03:28:47.307Z,99667.06
2022-10-23T03:31:16.154Z,99665.22
2022-10-23T03:33:44.109Z,99668.72
2022-10-23T03:36:11.967Z,99667.03
2022-10-23T03:38:40.285Z,99663.50
2022-10-23T03:41:07.522Z,99663.19
2022-10-23T03:43:35.234Z,99656.94
2022-10-23T03:46:02.943Z,99663.31
2022-10-23T03:48:30.360Z,99664.53
2022-10-23T03:50:58.297Z,99666.19
2022-10-23T03:53:25.715Z,99668.06
2022-10-23T03:55:53.393Z,99667.38
2022-10-23T03:58:20.996Z,99660.41
2022-10-23T04:00:49.219Z,99667.34
2022-10-23T04:03:16.903Z,99670.19
2022-10-23T04:05:44.329Z,99679.00
2022-10-23T04:08:16.298Z,99673.94
2022-10-23T04:10:48.503Z,99673.66
2022-10-23T04:13:16.314Z,99662.81
2022-10-23T04:15:49.997Z,99658.34
2022-10-23T04:18:17.592Z,99653.38
2022-10-23T04:20:44.952Z,99661.19
2022-10-23T04:23:12.124Z,99658.34
2022-10-23T04:25:41.133Z,99660.44
2022-10-23T04:28:08.582Z,99654.03
2022-10-23T04:30:36.438Z,99657.97
2022-10-23T04:33:03.979Z,99656.00
2022-10-23T04:35:31.304Z,99653.28
2022-10-23T04:37:58.688Z,99661.88
2022-10-23T04:40:26.171Z,99669.81
2022-10-23T04:42:53.624Z,99656.66
2022-10-23T04:45:21.621Z,99660.00
2022-10-23T04:47:49.096Z,99660.13
2022-10-23T04:50:16.466Z,99662.78
2022-10-23T04:53:04.089Z,99673.16
2022-10-23T04:55:32.064Z,99668.00
2022-10-23T04:58:04.003Z,99671.59
2022-10-23T05:00:32.299Z,99665.25
2022-10-23T05:02:59.543Z,99664.28
2022-10-23T05:05:31.404Z,99671.41
2022-10-23T05:07:59.447Z,99675.91
2022-10-23T05:10:26.867Z,99669.38
2022-10-23T05:12:54.549Z,99679.13
2022-10-23T05:15:21.781Z,99678.91
2022-10-23T05:17:50.216Z,99677.22
2022-10-23T05:20:20.502Z,99681.06
2022-10-23T05:22:48.850Z,99671.50
2022-10-23T05:25:17.853Z,99681.16
2022-10-23T05:27:45.913Z,99683.84
2022-10-23T05:30:13.507Z,99684.28
2022-10-23T05:32:41.186Z,99678.50
2022-10-23T05:35:10.088Z,99673.16
2022-10-23T05:37:38.005Z,99682.25
2022-10-23T05:40:06.299Z,99677.72
2022-10-23T05:42:36.149Z,99681.75
2022-10-23T05:45:05.724Z,99693.09
2022-10-23T05:47:36.942Z,99687.66
2022-10-23T05:50:05.335Z,99697.75
2022-10-23T05:52:33.204Z,99695.75
2022-10-23T05:55:01.127Z,99701.13
2022-10-23T05:57:34.637Z,99696.56
2022-10-23T06:00:03.528Z,99692.25
2022-10-23T06:02:40.632Z,99700.91
2022-10-23T06:05:09.187Z,99705.03
2022-10-23T06:07:37.803Z,99699.50
2022-10-23T06:10:05.477Z,99710.87
2022-10-23T06:12:34.293Z,99708.47
2022-10-23T06:15:01.561Z,99704.75
2022-10-23T06:17:30.897Z,99701.91
2022-10-23T06:20:02.466Z,99701.09
2022-10-23T06:22:30.607Z,99706.91
2022-10-23T06:24:59.873Z,99710.66
2022-10-23T06:27:27.368Z,99707.00
2022-10-23T06:29:55.299Z,99717.63
2022-10-23T06:32:22.783Z,99734.69
2022-10-23T06:34:50.704Z,99742.94
2022-10-23T06:37:18.121Z,99738.44
2022-10-23T06:39:45.775Z,99749.00
2022-10-23T06:42:13.290Z,99759.50
2022-10-23T06:44:45.229Z,99754.72
2022-10-23T06:49:47.125Z,99755.50
2022-10-23T06:52:34.887Z,99754.59
2022-10-23T06:55:03.344Z,99748.13
2022-10-23T06:57:31.012Z,99754.31
2022-10-23T06:59:58.920Z,99758.00
2022-10-23T07:02:26.297Z,99760.22
2022-10-23T07:04:53.840Z,99759.88
2022-10-23T07:07:23.905Z,99764.94
2022-10-23T07:09:51.055Z,99770.28
2022-10-23T07:12:18.779Z,99767.97
2022-10-23T07:14:46.672Z,99762.78
2022-10-23T07:17:15.691Z,99764.37
2022-10-23T07:19:43.157Z,99771.84
2022-10-23T07:22:13.347Z,99779.22
2022-10-23T07:24:45.349Z,99771.19
2022-10-23T07:27:13.543Z,99783.03
2022-10-23T07:29:40.995Z,99778.31
2022-10-23T07:32:09.227Z,99773.09
2022-10-23T07:34:38.652Z,99767.31
2022-10-23T07:37:08.200Z,99762.50
2022-10-23T07:39:35.764Z,99767.13
2022-10-23T07:42:03.385Z,99762.69
2022-10-23T07:44:30.635Z,99760.91
2022-10-23T07:46:58.071Z,99755.56
2022-10-23T07:49:25.608Z,99758.91
2022-10-23T07:51:54.004Z,99766.22
2022-10-23T07:54:22.336Z,99766.75
2022-10-23T07:56:50.435Z,99754.66
2022-10-23T07:59:17.871Z,99770.38
2022-10-23T08:01:49.537Z,99766.59
2022-10-23T08:04:19.494Z,99756.44
2022-10-23T08:06:47.105Z,99761.66
2022-10-23T08:09:14.477Z,99752.09
2022-10-23T08:11:42.452Z,99749.66
2022-10-23T08:14:10.037Z,99756.91
2022-10-23T08:16:39.346Z,99760.25
2022-10-23T08:19:08.409Z,99756.44
2022-10-23T08:21:35.858Z,99757.53
2022-10-23T08:24:03.411Z,99763.66
2022-10-23T08:26:31.026Z,99753.06
2022-10-23T08:28:59.805Z,99750.94
2022-10-23T08:31:27.312Z,99751.59
2022-10-23T08:33:56.827Z,99748.25
2022-10-23T08:36:25.487Z,99759.59
2022-10-23T08:38:56.388Z,99756.75
2022-10-23T08:41:31.870Z,99756.91
2022-10-23T08:44:05.499Z,99759.16
2022-10-23T08:46:34.795Z,99757.63
2022-10-23T08:49:12.975Z,99744.47
2022-10-23T08:51:43.783Z,99736.47
2022-10-23T08:54:21.236Z,99733.50
2022-10-23T08:56:50.168Z,99736.00
2022-10-23T08:59:39.563Z,99735.69
2022-10-23T09:02:26.665Z,99736.41
2022-10-23T09:04:54.439Z,99748.06
2022-10-23T09:07:26.539Z,99741.91
2022-10-23T09:10:23.289Z,99740.59
2022-10-23T09:12:50.752Z,99745.47
2022-10-23T09:15:36.515Z,99752.66
2022-10-23T09:18:14.608Z,99749.81
2022-10-23T09:20:42.365Z,99749.34
2022-10-23T09:23:16.189Z,99759.34
2022-10-23T09:25:45.226Z,99772.06
2022-10-23T09:28:19.865Z,99779.37
2022-10-23T09:30:47.475Z,99771.75
2022-10-23T09:33:23.159Z,99776.62
2022-10-23T09:35:56.356Z,99767.88
2022-10-23T09:38:28.371Z,99781.25
2022-10-23T09:40:59.344Z,99777.72
2022-10-23T09:43:29.341Z,99765.88
2022-10-23T09:46:03.080Z,99771.16
2022-10-23T09:48:30.772Z,99774.69
2022-10-23T09:51:01.947Z,99772.00
2022-10-23T09:53:37.233Z,99764.69
2022-10-23T09:56:22.335Z,99757.31
2022-10-23T09:58:57.851Z,99758.34
2022-10-23T10:01:26.510Z,99755.63
2022-10-23T10:03:54.497Z,99761.47
2022-10-23T10:06:23.616Z,99758.88
2022-10-23T10:08:52.252Z,99761.62
2022-10-23T10:11:27.771Z,99755.34
2022-10-23T10:14:13.749Z,99759.41
2022-10-23T10:16:50.029Z,99755.72
2022-10-23T10:19:36.040Z,99762.28
2022-10-23T10:22:12.762Z,99762.63
2022-10-23T10:24:52.369Z,99752.62
2022-10-23T10:27:22.589Z,99744.38
2022-10-23T10:30:04.403Z,99746.16
2022-10-23T10:32:40.691Z,99746.84
2022-10-23T10:35:20.832Z,99733.06
2022-10-23T10:38:03.746Z,99746.66
2022-10-23T10:40:34.925Z,99740.53
2022-10-23T10:43:02.432Z,99734.91
2022-10-23T10:45:31.215Z,99731.53
2022-10-23T10:48:13.733Z,99723.34
2022-10-23T10:50:54.553Z,99718.94
2022-10-23T10:53:24.857Z,99699.81
2022-10-23T10:55:53.896Z,99705.94
2022-10-23T10:58:23.768Z,99700.19
2022-10-23T11:00:53.123Z,99703.13
2022-10-23T11:03:36.159Z,99695.25
2022-10-23T11:06:12.115Z,99679.13
2022-10-23T11:08:50.056Z,99675.38
2022-10-23T11:11:27.329Z,99680.97
2022-10-23T11:13:55.092Z,99685.03
2022-10-23T11:16:23.884Z,99685.62
2022-10-23T11:19:02.928Z,99689.94
2022-10-23T11:21:43.340Z,99686.22
2022-10-23T11:24:19.720Z,99686.75
2022-10-23T11:26:53.275Z,99684.28
2022-10-23T11:29:23.467Z,99684.66
2022-10-23T11:32:10.034Z,99688.97
2022-10-23T11:34:40.136Z,99686.38
2022-10-23T11:37:09.141Z,99691.56
2022-10-23T11:39:37.048Z,99681.78
2022-10-23T11:42:04.902Z,99689.31
2022-10-23T11:44:48.528Z,99690.22
2022-10-23T11:47:25.010Z,99686.81
2022-10-23T11:50:07.851Z,99681.41
2022-10-23T11:53:09.363Z,99670.06
2022-10-23T11:55:42.359Z,99668.69
2022-10-23T11:58:20.723Z,99660.59
2022-10-23T12:01:02.031Z,99673.19
2022-10-23T12:03:30.878Z,99661.53
2022-10-23T12:06:02.917Z,99653.03
2022-10-23T12:08:31.269Z,99654.97
2022-10-23T12:10:58.422Z,99651.06
2022-10-23T12:13:30.191Z,99648.72
2022-10-23T12:16:00.116Z,99644.47
2022-10-23T12:18:28.339Z,99637.91
2022-10-23T12:21:02.222Z,99640.47
2022-10-23T12:23:36.015Z,99634.34
2022-10-23T12:26:22.063Z,99628.06
2022-10-23T12:29:02.452Z,99627.53
2022-10-23T12:31:29.602Z,99615.81
2022-10-23T12:34:14.347Z,99622.34
2022-10-23T12:37:01.346Z,99623.22
2022-10-23T12:39:39.162Z,99614.59
2022-10-23T12:42:09.732Z,99603.78
2022-10-23T12:44:37.149Z,99605.00
2022-10-23T12:47:04.356Z,99607.91
2022-10-23T12:49:33.833Z,99598.19
2022-10-23T12:52:02.622Z,99607.56
2022-10-23T12:54:33.475Z,99606.78
2022-10-23T12:59:46.145Z,99600.38
2022-10-23T13:02:23.829Z,99597.22
2022-10-23T13:04:51.593Z,99606.94
2022-10-23T13:07:19.677Z,99598.50
2022-10-23T13:09:47.131Z,99595.22
2022-10-23T13:12:25.103Z,99591.19
2022-10-23T13:14:59.119Z,99587.25
2022-10-23T13:17:39.887Z,99596.50
2022-10-23T13:20:10.442Z,99589.09
2022-10-23T13:22:37.557Z,99586.78
2022-10-23T13:25:19.258Z,99576.13
2022-10-23T13:27:46.906Z,99573.47
2022-10-23T13:30:46.615Z,99570.59
2022-10-23T13:33:23.408Z,99567.37
2022-10-23T13:36:04.240Z,99571.88
2022-10-23T13:38:35.947Z,99567.81
2022-10-23T13:41:04.863Z,99565.00
2022-10-23T13:43:32.696Z,99571.28
2022-10-23T13:46:00.365Z,99561.41
2022-10-23T13:48:27.870Z,99566.22
2022-10-23T13:50:57.493Z,99555.66
2022-10-23T13:53:25.906Z,99564.41
2022-10-23T13:55:56.278Z,99563.81
2022-10-23T13:58:26.520Z,99547.09
2022-10-23T14:00:54.274Z,99543.03
2022-10-23T14:03:24.407Z,99547.31
2022-10-23T14:05:51.772Z,99537.78
2022-10-23T14:08:19.076Z,99549.38
2022-10-23T14:10:46.732Z,99549.19
2022-10-23T14:13:14.085Z,99536.28
2022-10-23T14:15:41.644Z,99532.88
2022-10-23T14:18:09.422Z,99535.53
2022-10-23T14:20:38.241Z,99536.31
2022-10-23T14:23:05.423Z,99530.50
2022-10-23T14:25:33.255Z,99532.31
2022-10-23T14:28:00.525Z,99536.75
2022-10-23T14:30:27.773Z,99527.31
2022-10-23T14:32:55.289Z,99527.00
2022-10-23T14:35:22.857Z,99531.56
2022-10-23T14:37:50.598Z,99525.41
2022-10-23T14:40:18.375Z,99524.66
2022-10-23T14:42:45.731Z,99509.97
2022-10-23T14:45:12.975Z,99502.66
2022-10-23T14:47:40.507Z,99514.81
2022-10-23T14:50:08.052Z,99502.12
2022-10-23T14:52:35.573Z,99493.03
2022-10-23T14:55:03.588Z,99512.13
2022-10-23T14:57:31.109Z,99499.22
2022-10-23T14:59:58.355Z,99491.88
2022-10-23T15:02:25.863Z,99500.19
2022-10-23T15:04:53.078Z,99495.22
2022-10-23T15:07:20.313Z,99486.78
2022-10-23T15:09:47.793Z,99481.25
2022-10-23T15:12:14.934Z,99468.78
2022-10-23T15:14:42.084Z,99464.62
2022-10-23T15:17:14.563Z,99460.66
2022-10-23T15:19:42.947Z,99469.94
2022-10-23T15:22:10.678Z,99464.44
2022-10-23T15:24:37.910Z,99470.53
2022-10-23T15:27:05.527Z,99473.88
2022-10-23T15:29:33.362Z,99469.81
2022-10-23T15:32:00.498Z,99462.38
2022-10-23T15:34:28.334Z,99464.72
2022-10-23T15:36:56.228Z,99466.84
2022-10-23T15:39:24.716Z,99466.16
2022-10-23T15:41:52.599Z,99470.59
2022-10-23T15:44:20.755Z,99479.59
2022-10-23T15:46:48.497Z,99486.28
2022-10-23T15:49:15.871Z,99485.88
2022-10-23T15:51:43.805Z,99490.81
2022-10-23T15:54:13.436Z,99476.97
2022-10-23T15:56:40.663Z,99471.12
2022-10-23T15:59:08.190Z,99473.75
2022-10-23T16:01:35.499Z,99465.59
2022-10-23T16:04:07.484Z,99465.50
2022-10-23T16:06:34.722Z,99459.69
2022-10-23T16:09:01.837Z,99459.53
2022-10-23T16:11:30.282Z,99473.56
2022-10-23T16:13:58.320Z,99482.91
2022-10-23T16:16:26.168Z,99491.63
2022-10-23T16:18:54.060Z,99489.94
2022-10-23T16:21:22.877Z,99489.19
2022-10-23T16:23:50.394Z,99500.19
2022-10-23T16:26:18.019Z,99507.50
2022-10-23T16:28:47.214Z,99509.19
2022-10-23T16:31:19.303Z,99516.03
2022-10-23T16:33:48.259Z,99505.69
2022-10-23T16:36:16.053Z,99494.25
2022-10-23T16:38:53.300Z,99504.34
2022-10-23T16:41:24.226Z,99504.97
2022-10-23T16:43:51.827Z,99497.19
2022-10-23T16:46:20.619Z,99488.97
2022-10-23T16:48:49.318Z,99496.22
2022-10-23T16:51:17.752Z,99510.59
2022-10-23T16:53:45.331Z,99517.16
2022-10-23T16:56:17.036Z,99521.09
2022-10-23T16:58:45.044Z,99527.44
2022-10-23T17:01:20.263Z,99513.63
2022-10-23T17:03:49.228Z,99520.25
2022-10-23T17:06:18.348Z,99525.03
2022-10-23T17:08:46.347Z,99534.88
2022-10-23T17:11:17.296Z,99531.59
2022-10-23T17:13:46.691Z,99525.16
2022-10-23T17:16:27.938Z,99524.56
2022-10-23T17:18:55.819Z,99525.38
2022-10-23T17:21:23.441Z,99518.00
2022-10-23T17:23:51.769Z,99524.22
2022-10-23T17:26:19.940Z,99527.09
2022-10-23T17:28:48.278Z,99523.28
2022-10-23T17:31:17.650Z,99534.81
2022-10-23T17:33:46.893Z,99522.06
2022-10-23T17:36:16.288Z,99514.31
2022-10-23T17:39:06.388Z,99518.72
2022-10-23T17:41:34.665Z,99515.69
2022-10-23T17:44:02.720Z,99504.41
2022-10-23T17:46:30.462Z,99504.06
2022-10-23T17:48:59.049Z,99495.09
2022-10-23T17:51:28.237Z,99499.25
2022-10-23T17:53:56.810Z,99484.72
2022-10-23T17:56:27.318Z,99497.09
2022-10-23T17:58:57.661Z,99490.00
2022-10-23T18:01:26.206Z,99492.09
2022-10-23T18:03:57.619Z,99496.38
2022-10-23T18:06:29.809Z,99497.28
2022-10-23T18:09:00.272Z,99501.00
2022-10-23T18:11:35.212Z,99506.47
2022-10-23T18:14:04.040Z,99501.72
2022-10-23T18:16:31.768Z,99507.38
2022-10-23T18:19:00.240Z,99498.25
2022-10-23T18:21:28.313Z,99498.41
2022-10-23T18:23:56.144Z,99495.03
2022-10-23T18:26:25.214Z,99492.84
2022-10-23T18:28:53.704Z,99492.53
2022-10-23T18:31:21.617Z,99489.34
2022-10-23T18:33:49.442Z,99489.19
2022-10-23T18:36:25.055Z,99490.69
2022-10-23T18:38:52.832Z,99494.12
2022-10-23T18:41:21.986Z,99503.69
2022-10-23T18:43:53.123Z,99495.19
2022-10-23T18:46:21.178Z,99479.91
2022-10-23T18:48:51.178Z,99484.84
2022-10-23T18:51:24.023Z,99487.25
2022-10-23T18:53:57.445Z,99494.84
2022-10-23T18:56:27.123Z,99499.25
2022-10-23T18:58:59.086Z,99487.47
2022-10-23T19:01:27.502Z,99489.25
2022-10-23T19:06:23.990Z,99481.13
2022-10-23T19:08:51.997Z,99479.47
2022-10-23T19:11:20.156Z,99487.31
2022-10-23T19:13:48.047Z,99479.84
2022-10-23T19:16:20.282Z,99480.19
2022-10-23T19:18:58.683Z,99484.81
2022-10-23T19:21:31.585Z,99488.09
2022-10-23T19:24:04.750Z,99489.03
2022-10-23T19:26:31.976Z,99484.25
2022-10-23T19:29:01.965Z,99487.94
2022-10-23T19:31:29.574Z,99492.19
2022-10-23T19:33:57.278Z,99496.50
2022-10-23T19:36:24.872Z,99492.56
2022-10-23T19:38:52.480Z,99481.38
2022-10-23T19:41:19.721Z,99483.19
2022-10-23T19:43:47.678Z,99481.19
2022-10-23T19:46:19.164Z,99486.59
2022-10-23T19:48:48.398Z,99488.44
2022-10-23T19:51:15.966Z,99491.50
2022-10-23T19:53:43.725Z,99497.44
2022-10-23T19:56:12.164Z,99495.56
2022-10-23T19:58:41.017Z,99495.31
2022-10-23T20:01:12.955Z,99500.19
2022-10-23T20:03:41.793Z,99501.22
2022-10-23T20:06:10.074Z,99497.31
2022-10-23T20:08:37.330Z,99496.41
2022-10-23T20:11:05.468Z,99496.78
2022-10-23T20:13:34.097Z,99495.19
2022-10-23T20:16:04.115Z,99500.44
2022-10-23T20:18:32.888Z,99499.56
2022-10-23T20:21:01.504Z,99506.81
2022-10-23T20:23:29.143Z,99495.72
2022-10-23T20:26:03.281Z,99503.47
2022-10-23T20:28:30.563Z,99497.91
2022-10-23T20:30:58.414Z,99480.75
2022-10-23T20:33:25.788Z,99483.00
2022-10-23T20:35:53.283Z,99482.19
2022-10-23T20:38:21.186Z,99477.38
2022-10-23T20:40:48.877Z,99469.06
2022-10-23T20:43:16.159Z,99471.56
2022-10-23T20:45:43.650Z,99477.59
2022-10-23T20:48:11.347Z,99472.16
2022-10-23T20:50:38.902Z,99461.44
2022-10-23T20:53:06.645Z,99452.09
2022-10-23T20:55:34.068Z,99455.41
2022-10-23T20:58:01.631Z,99455.22
2022-10-23T21:00:29.275Z,99455.34
2022-10-23T21:02:57.105Z,99460.44
2022-10-23T21:05:24.745Z,99462.88
2022-10-23T21:07:52.244Z,99460.47
2022-10-23T21:10:19.407Z,99454.94
2022-10-23T21:12:46.721Z,99453.94
2022-10-23T21:15:14.364Z,99453.91
2022-10-23T21:17:41.809Z,99448.50
2022-10-23T21:20:09.088Z,99441.97
2022-10-23T21:22:36.576Z,99450.78
2022-10-23T21:25:03.802Z,99450.69
2022-10-23T21:27:30.952Z,99454.72
2022-10-23T21:29:58.783Z,99449.56
2022-10-23T21:32:26.007Z,99449.06
2022-10-23T21:34:55.087Z,99450.53
2022-10-23T21:37:24.994Z,99450.28
2022-10-23T21:39:52.188Z,99456.88
2022-10-23T21:42:19.445Z,99460.22
2022-10-23T21:44:46.966Z,99455.78
2022-10-23T21:47:14.164Z,99454.28
2022-10-23T21:49:41.397Z,99443.88
2022-10-23T21:52:08.875Z,99439.66
2022-10-23T21:54:36.047Z,99447.34
2022-10-23T21:57:03.547Z,99438.63
2022-10-23T21:59:33.103Z,99448.47
2022-10-23T22:02:02.753Z,99452.03
2022-10-23T22:04:30.296Z,99442.59
2022-10-23T22:06:57.491Z,99446.97
2022-10-23T22:09:24.647Z,99450.78
2022-10-23T22:11:52.700Z,99455.78
2022-10-23T22:14:20.059Z,99463.44
2022-10-23T22:16:47.529Z,99448.97
2022-10-23T22:19:15.438Z,99449.97
2022-10-23T22:21:42.748Z,99440.25
2022-10-23T22:24:09.975Z,99446.03
2022-10-23T22:26:38.573Z,99447.59
2022-10-23T22:29:06.539Z,99442.66
2022-10-23T22:31:34.458Z,99448.94
2022-10-23T22:34:13.110Z,99457.63
2022-10-23T22:36:49.794Z,99455.59
2022-10-23T22:39:17.197Z,99447.47
2022-10-23T22:41:44.339Z,99448.09
2022-10-23T22:44:11.947Z,99446.63
2022-10-23T22:46:39.410Z,99440.56
2022-10-23T22:51:33.646Z,99434.66
2022-10-23T22:54:01.141Z,99439.56
2022-10-23T22:56:29.109Z,99439.81
2022-10-23T22:58:56.597Z,99433.94
2022-10-23T23:01:25.907Z,99422.94
2022-10-23T23:03:53.154Z,99423.53
2022-10-23T23:06:20.711Z,99428.66
2022-10-23T23:08:48.191Z,99423.88
2022-10-23T23:11:15.882Z,99429.84
2022-10-23T23:13:43.200Z,99422.25
2022-10-23T23:16:21.685Z,99420.28
2022-10-23T23:18:49.078Z,99424.56
2022-10-23T23:21:16.543Z,99430.94
2022-10-23T23:23:43.725Z,99424.44
2022-10-23T23:26:10.998Z,99420.63
2022-10-23T23:28:38.487Z,99418.69
2022-10-23T23:31:10.796Z,99427.31
2022-10-23T23:33:38.076Z,99428.81
2022-10-23T23:36:06.419Z,99415.88
2022-10-23T23:38:33.644Z,99413.97
2022-10-23T23:41:00.774Z,99407.19
2022-10-23T23:43:28.227Z,99412.72
2022-10-23T23:45:55.665Z,99417.47
2022-10-23T23:48:22.795Z,99415.22
2022-10-23T23:50:50.289Z,99418.12
2022-10-23T23:53:17.520Z,99413.63
2022-10-23T23:55:44.677Z,99411.22
2022-10-23T23:58:12.139Z,99413.41
